createdAt,value
2019-03-26T00:00:51.076Z,0.00
2019-03-26T00:04:05.239Z,0.00
2019-03-26T00:07:00.763Z,0.10
2019-03-26T00:10:04.623Z,0.30
2019-03-26T00:13:08.388Z,0.40
2019-03-26T00:16:12.056Z,0.40
2019-03-26T00:19:15.768Z,0.50
2019-03-26T00:22:19.509Z,0.40
2019-03-26T00:25:23.181Z,0.30
2019-03-26T00:28:26.890Z,0.40
2019-03-26T00:31:30.591Z,0.30
2019-03-26T00:34:34.309Z,0.30
2019-03-26T00:37:38.043Z,0.20
2019-03-26T00:40:41.716Z,0.20
2019-03-26T00:43:45.424Z,0.10
2019-03-26T00:46:49.371Z,0.00
2019-03-26T00:49:53.131Z,0.20
2019-03-26T00:52:56.987Z,0.30
2019-03-26T00:56:00.639Z,0.50
2019-03-26T00:59:04.467Z,0.50
2019-03-26T01:02:08.219Z,0.40
2019-03-26T01:05:11.988Z,0.40
2019-03-26T01:08:15.796Z,0.40
2019-03-26T01:11:20.578Z,0.40
2019-03-26T01:14:24.335Z,0.50
2019-03-26T01:17:29.172Z,0.50
2019-03-26T01:20:32.976Z,0.50
2019-03-26T01:23:36.694Z,0.40
2019-03-26T01:26:40.496Z,0.40
2019-03-26T01:29:44.298Z,0.30
2019-03-26T01:32:48.108Z,0.30
2019-03-26T01:35:51.820Z,0.30
2019-03-26T01:38:55.527Z,0.30
2019-03-26T01:41:59.220Z,0.20
2019-03-26T01:45:02.943Z,0.30
2019-03-26T01:48:06.836Z,0.30
2019-03-26T01:51:11.735Z,0.20
2019-03-26T01:54:15.395Z,0.30
2019-03-26T01:57:19.099Z,0.30
2019-03-26T02:00:22.859Z,0.30
2019-03-26T02:03:26.516Z,0.40
2019-03-26T02:06:30.217Z,0.50
2019-03-26T02:09:34.036Z,0.50
2019-03-26T02:12:37.844Z,0.40
2019-03-26T02:15:41.600Z,0.40
2019-03-26T02:18:45.396Z,0.30
2019-03-26T02:21:49.120Z,0.30
2019-03-26T02:24:52.772Z,0.30
2019-03-26T02:27:56.835Z,0.30
2019-03-26T02:31:00.615Z,0.30
2019-03-26T02:34:04.658Z,0.30
2019-03-26T02:37:08.468Z,0.30
2019-03-26T02:40:12.236Z,0.40
2019-03-26T02:43:16.098Z,0.30
2019-03-26T02:46:19.841Z,0.30
2019-03-26T02:49:23.596Z,0.30
2019-03-26T02:52:27.418Z,0.40
2019-03-26T02:55:31.107Z,0.50
2019-03-26T02:58:34.781Z,0.50
2019-03-26T03:01:38.527Z,0.50
2019-03-26T03:04:42.405Z,0.60
2019-03-26T03:07:46.306Z,0.70
2019-03-26T03:10:50.060Z,0.70
2019-03-26T03:13:53.726Z,0.80
2019-03-26T03:16:57.676Z,0.80
2019-03-26T03:20:01.473Z,0.70
2019-03-26T03:23:05.161Z,0.70
2019-03-26T03:26:08.996Z,0.70
2019-03-26T03:29:12.779Z,0.70
2019-03-26T03:32:16.622Z,0.80
2019-03-26T03:35:20.292Z,0.80
2019-03-26T03:38:24.003Z,0.80
2019-03-26T03:41:28.086Z,0.80
2019-03-26T03:44:31.821Z,0.80
2019-03-26T03:47:36.757Z,0.80
2019-03-26T03:50:41.638Z,0.80
2019-03-26T03:53:45.755Z,0.70
2019-03-26T03:56:52.216Z,0.70
2019-03-26T03:59:58.951Z,0.60
2019-03-26T04:03:03.352Z,0.70
2019-03-26T04:06:09.734Z,0.70
2019-03-26T04:09:13.564Z,0.70
2019-03-26T04:12:17.279Z,0.80
2019-03-26T04:15:21.071Z,0.80
2019-03-26T04:18:24.675Z,0.70
2019-03-26T04:21:28.441Z,0.70
2019-03-26T04:24:32.095Z,0.70
2019-03-26T04:27:37.171Z,0.80
2019-03-26T04:30:41.044Z,0.80
2019-03-26T04:33:44.752Z,0.70
2019-03-26T04:36:48.559Z,0.80
2019-03-26T04:39:52.297Z,0.80
2019-03-26T04:42:55.881Z,0.90
2019-03-26T04:45:59.580Z,1.00
2019-03-26T04:49:03.439Z,0.90
2019-03-26T04:52:07.100Z,1.00
2019-03-26T04:55:10.840Z,1.20
2019-03-26T04:58:14.503Z,1.20
2019-03-26T05:01:18.528Z,1.30
2019-03-26T05:04:22.117Z,1.40
2019-03-26T05:07:25.836Z,1.40
2019-03-26T05:10:31.169Z,1.40
2019-03-26T05:13:34.976Z,1.60
2019-03-26T05:16:38.694Z,1.60
2019-03-26T05:19:42.392Z,1.70
2019-03-26T05:22:46.205Z,1.80
2019-03-26T05:25:50.012Z,1.90
2019-03-26T05:28:53.838Z,1.80
2019-03-26T05:31:57.527Z,1.90
2019-03-26T05:35:02.168Z,1.90
2019-03-26T05:38:06.072Z,2.00
2019-03-26T05:41:10.637Z,2.00
2019-03-26T05:44:14.395Z,2.10
2019-03-26T05:47:18.100Z,2.20
2019-03-26T05:50:21.820Z,2.20
2019-03-26T05:53:25.528Z,2.30
2019-03-26T05:56:30.592Z,2.30
2019-03-26T05:59:34.375Z,2.40
2019-03-26T06:02:38.087Z,2.50
2019-03-26T06:05:41.776Z,2.60
2019-03-26T06:08:45.533Z,2.60
2019-03-26T06:11:49.224Z,2.70
2019-03-26T06:14:53.012Z,2.70
2019-03-26T06:17:57.760Z,2.80
2019-03-26T06:21:01.448Z,2.90
2019-03-26T06:24:05.193Z,2.90
2019-03-26T06:27:08.999Z,2.90
2019-03-26T06:30:12.877Z,3.00
2019-03-26T06:33:16.726Z,3.00
2019-03-26T06:36:20.480Z,3.10
2019-03-26T06:39:24.469Z,3.20
2019-03-26T06:42:28.147Z,3.20
2019-03-26T06:45:31.821Z,3.30
2019-03-26T06:48:35.564Z,3.30
2019-03-26T06:51:39.281Z,3.30
2019-03-26T06:54:43.043Z,3.40
2019-03-26T06:57:46.790Z,3.40
2019-03-26T07:00:50.664Z,3.40
2019-03-26T07:03:54.520Z,3.40
2019-03-26T07:06:58.184Z,3.50
2019-03-26T07:10:02.127Z,3.70
2019-03-26T07:13:05.835Z,3.70
2019-03-26T07:16:09.603Z,3.90
2019-03-26T07:19:13.425Z,4.00
2019-03-26T07:22:17.167Z,4.20
2019-03-26T07:25:21.042Z,4.40
2019-03-26T07:28:24.764Z,4.50
2019-03-26T07:31:28.456Z,4.50
2019-03-26T07:34:32.157Z,4.50
2019-03-26T07:37:45.137Z,4.60
2019-03-26T07:40:41.517Z,4.70
2019-03-26T07:43:45.267Z,4.90
2019-03-26T07:46:49.035Z,5.10
2019-03-26T07:49:52.849Z,5.50
2019-03-26T07:52:56.576Z,5.80
2019-03-26T07:56:00.303Z,6.00
2019-03-26T07:59:03.999Z,6.00
2019-03-26T08:02:08.704Z,5.90
2019-03-26T08:05:12.404Z,5.80
2019-03-26T08:08:16.131Z,5.70
2019-03-26T08:11:20.024Z,5.70
2019-03-26T08:14:23.845Z,5.70
2019-03-26T08:17:27.542Z,5.60
2019-03-26T08:20:31.260Z,5.60
2019-03-26T08:23:38.316Z,5.80
2019-03-26T08:26:41.432Z,6.30
2019-03-26T08:29:45.188Z,6.80
2019-03-26T08:32:48.948Z,7.30
2019-03-26T08:35:52.759Z,7.40
2019-03-26T08:38:56.698Z,7.50
2019-03-26T08:42:00.476Z,7.20
2019-03-26T08:45:04.595Z,7.00
2019-03-26T08:48:08.299Z,7.00
2019-03-26T08:51:12.107Z,6.90
2019-03-26T08:54:15.851Z,6.70
2019-03-26T08:57:19.636Z,6.60
2019-03-26T09:00:23.352Z,6.40
2019-03-26T09:03:27.244Z,6.60
2019-03-26T09:06:30.963Z,7.10
2019-03-26T09:09:34.659Z,7.30
2019-03-26T09:12:39.674Z,7.40
2019-03-26T09:15:43.512Z,7.20
2019-03-26T09:18:47.204Z,7.20
2019-03-26T09:21:51.023Z,6.90
2019-03-26T09:24:54.720Z,7.00
2019-03-26T09:27:58.543Z,6.80
2019-03-26T09:31:02.233Z,6.80
2019-03-26T09:34:05.960Z,6.90
2019-03-26T09:37:09.809Z,7.10
2019-03-26T09:40:13.817Z,7.20
2019-03-26T09:43:17.587Z,7.20
2019-03-26T09:46:21.319Z,7.30
2019-03-26T09:49:25.214Z,7.70
2019-03-26T09:52:28.930Z,7.70
2019-03-26T09:55:32.962Z,7.50
2019-03-26T09:58:36.844Z,7.60
2019-03-26T10:01:40.563Z,7.70
2019-03-26T10:05:00.108Z,8.00
2019-03-26T10:08:04.246Z,8.20
2019-03-26T10:11:08.083Z,8.20
2019-03-26T10:14:11.764Z,8.20
2019-03-26T10:17:15.488Z,8.20
2019-03-26T10:20:19.315Z,8.00
2019-03-26T10:23:22.988Z,7.80
2019-03-26T10:26:26.827Z,7.50
2019-03-26T10:29:31.318Z,7.70
2019-03-26T10:32:35.540Z,7.60
2019-03-26T10:35:39.288Z,7.40
2019-03-26T10:38:42.950Z,7.30
2019-03-26T10:41:47.005Z,7.20
2019-03-26T10:44:50.775Z,7.30
2019-03-26T10:47:54.489Z,7.40
2019-03-26T10:50:58.227Z,7.40
2019-03-26T10:54:01.883Z,7.50
2019-03-26T10:57:05.648Z,7.60
2019-03-26T11:00:09.420Z,7.80
2019-03-26T11:03:13.245Z,7.80
2019-03-26T11:06:17.068Z,7.60
2019-03-26T11:09:26.990Z,7.60
2019-03-26T11:12:26.396Z,7.80
2019-03-26T11:15:30.116Z,8.00
2019-03-26T11:18:33.794Z,8.10
2019-03-26T11:21:37.540Z,8.70
2019-03-26T11:24:41.307Z,10.00
2019-03-26T11:27:45.972Z,10.40
2019-03-26T11:30:49.773Z,11.00
2019-03-26T11:33:53.556Z,9.80
2019-03-26T11:36:57.479Z,9.20
2019-03-26T11:40:01.171Z,9.50
2019-03-26T11:43:05.907Z,10.50
2019-03-26T11:46:09.652Z,10.90
2019-03-26T11:49:13.324Z,10.30
2019-03-26T11:52:17.028Z,10.00
2019-03-26T11:55:21.926Z,9.60
2019-03-26T11:58:30.849Z,9.50
2019-03-26T12:01:31.568Z,10.20
2019-03-26T12:04:35.371Z,10.50
2019-03-26T12:07:39.076Z,11.10
2019-03-26T12:10:42.756Z,11.60
2019-03-26T12:13:46.464Z,13.50
2019-03-26T12:16:50.308Z,14.70
2019-03-26T12:19:53.976Z,14.50
2019-03-26T12:22:57.893Z,13.20
2019-03-26T12:26:01.736Z,11.60
2019-03-26T12:29:05.608Z,11.00
2019-03-26T12:32:09.300Z,10.80
2019-03-26T12:35:26.948Z,10.40
2019-03-26T12:38:30.760Z,10.70
2019-03-26T12:41:34.399Z,11.70
2019-03-26T12:44:38.076Z,12.20
2019-03-26T12:47:41.879Z,12.70
2019-03-26T12:50:45.876Z,12.80
2019-03-26T12:53:49.604Z,13.80
2019-03-26T12:56:53.546Z,14.80
2019-03-26T12:59:57.224Z,14.70
2019-03-26T13:03:00.912Z,14.00
2019-03-26T13:06:04.540Z,14.30
2019-03-26T13:09:09.161Z,14.60
2019-03-26T13:12:12.972Z,13.70
2019-03-26T13:15:16.668Z,12.70
2019-03-26T13:18:20.525Z,11.40
2019-03-26T13:21:24.189Z,11.00
2019-03-26T13:24:28.009Z,10.50
2019-03-26T13:27:31.720Z,10.00
2019-03-26T13:30:35.424Z,10.10
2019-03-26T13:33:39.128Z,10.60
2019-03-26T13:36:42.860Z,11.50
2019-03-26T13:39:46.544Z,12.90
2019-03-26T13:42:50.232Z,12.00
2019-03-26T13:45:53.856Z,11.40
2019-03-26T13:48:57.660Z,10.50
2019-03-26T13:52:01.606Z,10.00
2019-03-26T13:55:05.877Z,10.10
2019-03-26T13:58:09.534Z,10.20
2019-03-26T14:01:13.312Z,10.30
2019-03-26T14:04:17.156Z,10.40
2019-03-26T14:07:21.080Z,10.30
2019-03-26T14:10:24.935Z,10.10
2019-03-26T14:13:28.683Z,9.90
2019-03-26T14:16:32.356Z,10.00
2019-03-26T14:19:36.125Z,10.10
2019-03-26T14:22:39.823Z,10.20
2019-03-26T14:25:43.584Z,9.90
2019-03-26T14:28:47.427Z,10.20
2019-03-26T14:31:51.096Z,10.00
2019-03-26T14:34:54.807Z,11.00
2019-03-26T14:37:58.552Z,12.20
2019-03-26T14:41:02.212Z,12.80
2019-03-26T14:44:06.291Z,13.20
2019-03-26T14:47:11.068Z,11.70
2019-03-26T14:50:15.142Z,10.70
2019-03-26T14:53:18.881Z,10.20
2019-03-26T14:56:22.853Z,10.00
2019-03-26T14:59:26.607Z,10.20
2019-03-26T15:02:30.467Z,10.30
2019-03-26T15:05:34.384Z,10.30
2019-03-26T15:08:38.091Z,10.50
2019-03-26T15:11:41.859Z,10.20
2019-03-26T15:14:46.687Z,10.00
2019-03-26T15:17:50.537Z,9.60
2019-03-26T15:20:54.199Z,9.70
2019-03-26T15:23:57.932Z,10.40
2019-03-26T15:27:01.819Z,11.20
2019-03-26T15:30:05.947Z,10.60
2019-03-26T15:33:09.723Z,10.20
2019-03-26T15:36:13.452Z,10.20
2019-03-26T15:39:17.299Z,10.00
2019-03-26T15:42:21.153Z,9.70
2019-03-26T15:45:24.923Z,9.50
2019-03-26T15:48:28.591Z,9.40
2019-03-26T15:51:32.295Z,9.30
2019-03-26T15:54:36.035Z,9.20
2019-03-26T15:57:39.712Z,9.50
2019-03-26T16:00:43.519Z,9.50
2019-03-26T16:03:47.227Z,9.20
2019-03-26T16:06:50.936Z,9.10
2019-03-26T16:09:54.696Z,8.90
2019-03-26T16:12:58.336Z,8.90
2019-03-26T16:16:02.160Z,9.00
2019-03-26T16:19:05.973Z,9.00
2019-03-26T16:22:09.680Z,9.00
2019-03-26T16:25:13.729Z,8.90
2019-03-26T16:28:17.401Z,8.80
2019-03-26T16:31:22.848Z,8.70
2019-03-26T16:34:26.656Z,8.50
2019-03-26T16:37:30.359Z,8.50
2019-03-26T16:40:34.108Z,8.50
2019-03-26T16:43:37.764Z,8.60
2019-03-26T16:46:41.483Z,8.60
2019-03-26T16:49:45.185Z,8.50
2019-03-26T16:52:49.103Z,8.40
2019-03-26T16:55:53.939Z,8.30
2019-03-26T16:58:57.939Z,8.30
2019-03-26T17:02:01.871Z,8.10
2019-03-26T17:05:06.025Z,8.00
2019-03-26T17:08:10.911Z,7.90
2019-03-26T17:11:14.724Z,7.90
2019-03-26T17:14:19.489Z,7.80
2019-03-26T17:17:23.199Z,7.70
2019-03-26T17:20:27.008Z,7.60
2019-03-26T17:23:30.712Z,7.50
2019-03-26T17:26:34.524Z,7.50
2019-03-26T17:29:38.328Z,7.40
2019-03-26T17:32:42.135Z,7.40
2019-03-26T17:35:45.639Z,7.30
2019-03-26T17:38:49.367Z,7.20
2019-03-26T17:41:53.196Z,7.20
2019-03-26T17:44:58.388Z,7.10
2019-03-26T17:48:02.351Z,7.10
2019-03-26T17:51:06.019Z,7.00
2019-03-26T17:54:09.744Z,6.90
2019-03-26T17:57:13.468Z,6.90
2019-03-26T18:00:20.412Z,6.80
2019-03-26T18:03:26.722Z,6.70
2019-03-26T18:06:31.065Z,6.70
2019-03-26T18:09:35.125Z,6.70
2019-03-26T18:12:40.089Z,6.70
2019-03-26T18:15:44.114Z,6.50
2019-03-26T18:18:48.841Z,6.50
2019-03-26T18:21:52.502Z,6.50
2019-03-26T18:24:56.324Z,6.50
2019-03-26T18:28:00.049Z,6.40
2019-03-26T18:31:03.843Z,6.40
2019-03-26T18:34:07.792Z,6.40
2019-03-26T18:37:11.767Z,6.40
2019-03-26T18:40:15.866Z,6.30
2019-03-26T18:43:20.256Z,6.30
2019-03-26T18:46:24.007Z,6.30
2019-03-26T18:49:28.262Z,6.30
2019-03-26T18:52:31.935Z,6.30
2019-03-26T18:55:36.876Z,6.30
2019-03-26T18:58:40.719Z,6.20
2019-03-26T19:01:44.388Z,6.20
2019-03-26T19:04:48.248Z,6.10
2019-03-26T19:07:52.140Z,6.10
2019-03-26T19:11:37.912Z,6.10
2019-03-26T19:14:42.022Z,6.00
2019-03-26T19:17:45.937Z,5.90
2019-03-26T19:21:01.426Z,5.90
2019-03-26T19:24:04.112Z,5.80
2019-03-26T19:27:04.250Z,5.90
2019-03-26T19:30:07.619Z,6.00
2019-03-26T19:33:11.437Z,6.00
2019-03-26T19:36:15.123Z,6.00
2019-03-26T19:39:18.982Z,5.90
2019-03-26T19:42:22.963Z,5.90
2019-03-26T19:45:26.672Z,6.00
2019-03-26T19:48:30.512Z,5.90
2019-03-26T19:51:34.395Z,5.80
2019-03-26T19:54:38.207Z,5.70
2019-03-26T19:57:42.007Z,5.70
2019-03-26T20:00:45.724Z,5.60
2019-03-26T20:03:49.632Z,5.50
2019-03-26T20:06:53.335Z,5.60
2019-03-26T20:09:57.152Z,5.50
2019-03-26T20:13:00.836Z,5.40
2019-03-26T20:16:04.564Z,5.30
2019-03-26T20:19:08.248Z,5.20
2019-03-26T20:22:12.028Z,5.20
2019-03-26T20:25:15.817Z,5.10
2019-03-26T20:28:19.596Z,5.00
2019-03-26T20:31:23.445Z,4.90
2019-03-26T20:34:27.304Z,4.80
2019-03-26T20:37:31.620Z,4.70
2019-03-26T20:40:40.960Z,4.60
2019-03-26T20:43:45.707Z,4.40
2019-03-26T20:46:49.435Z,4.30
2019-03-26T20:49:53.369Z,4.20
2019-03-26T20:52:57.339Z,4.10
2019-03-26T20:56:01.576Z,4.00
2019-03-26T20:59:08.986Z,4.00
2019-03-26T21:02:12.663Z,3.90
2019-03-26T21:05:19.112Z,3.90
2019-03-26T21:08:22.944Z,3.90
2019-03-26T21:11:26.687Z,3.90
2019-03-26T21:14:30.463Z,3.90
2019-03-26T21:17:34.272Z,3.80
2019-03-26T21:20:38.111Z,3.80
2019-03-26T21:23:41.991Z,3.70
2019-03-26T21:26:50.671Z,3.60
2019-03-26T21:30:10.661Z,3.40
2019-03-26T21:33:08.406Z,3.40
2019-03-26T21:36:12.228Z,3.30
2019-03-26T21:39:25.999Z,3.20
2019-03-26T21:42:29.946Z,3.20
2019-03-26T21:45:35.220Z,3.10
2019-03-26T21:48:39.089Z,3.00
2019-03-26T21:51:42.832Z,3.10
2019-03-26T21:54:46.491Z,3.00
2019-03-26T21:57:50.220Z,2.80
2019-03-26T22:00:53.972Z,2.80
2019-03-26T22:03:57.727Z,2.70
2019-03-26T22:07:01.455Z,2.70
2019-03-26T22:10:06.943Z,2.60
2019-03-26T22:13:10.700Z,2.50
2019-03-26T22:16:14.503Z,2.50
2019-03-26T22:19:27.812Z,2.40
2019-03-26T22:22:23.859Z,2.30
2019-03-26T22:25:28.674Z,2.20
2019-03-26T22:28:32.404Z,2.10
2019-03-26T22:31:36.115Z,2.00
2019-03-26T22:34:39.923Z,2.00
2019-03-26T22:37:43.640Z,1.80
2019-03-26T22:40:47.335Z,1.90
2019-03-26T22:43:51.047Z,1.90
2019-03-26T22:46:54.738Z,1.80
2019-03-26T22:49:58.356Z,1.80
2019-03-26T22:53:02.066Z,1.80
2019-03-26T22:56:05.873Z,1.80
2019-03-26T22:59:09.616Z,1.80
2019-03-26T23:02:13.391Z,1.70
2019-03-26T23:05:17.426Z,1.70
2019-03-26T23:08:21.152Z,1.50
2019-03-26T23:11:24.924Z,1.40
2019-03-26T23:14:28.848Z,1.30
2019-03-26T23:17:32.724Z,1.20
2019-03-26T23:20:37.348Z,1.10
2019-03-26T23:23:41.194Z,1.10
2019-03-26T23:26:44.976Z,1.00
2019-03-26T23:29:48.915Z,1.00
2019-03-26T23:32:52.671Z,0.80
2019-03-26T23:35:56.431Z,0.70
2019-03-26T23:39:00.252Z,0.60
2019-03-26T23:42:04.112Z,0.60
2019-03-26T23:45:09.398Z,0.50
2019-03-26T23:48:13.167Z,0.40
2019-03-26T23:51:16.911Z,0.30
2019-03-26T23:54:20.721Z,0.10
2019-03-26T23:57:24.495Z,-0.10
